Time;durP1;ratioP1;P1;durP2;ratioP2;P2;SDS_P1;SDS_P2;PMS_P1;PMS_P2;Temp;Humidity;BMP_temperature;BMP_pressure;BME280_temperature;BME280_humidity;BME280_pressure;Samples;Min_cycle;Max_cycle;Signal;HPM_P1;HPM_P2
2022/12/12 00:01:40;;;;;;;;;;;3.80;80.60;;;;;;5094431;28;19916;-35
2022/12/12 00:04:05;;;;;;;;;;;3.80;80.60;;;;;;5093340;28;19920;-36
2022/12/12 00:06:31;;;;;;;;;;;3.80;80.50;;;;;;5094268;28;20367;-36
2022/12/12 00:08:56;;;;;;;;;;;3.90;80.50;;;;;;5094441;28;19912;-36
2022/12/12 00:11:22;;;;;;;;;;;3.90;80.60;;;;;;5094090;28;19918;-36
2022/12/12 00:13:48;;;;;;;;;;;3.90;80.50;;;;;;5094440;28;19989;-35
2022/12/12 00:16:14;;;;;;;;;;;3.90;80.40;;;;;;5094567;28;19969;-36
2022/12/12 00:18:40;;;;;;;;;;;3.90;80.40;;;;;;5094339;28;19919;-36
2022/12/12 00:21:10;;;;;;;;;;;3.90;80.40;;;;;;5094229;28;19912;-36
2022/12/12 00:23:35;;;;;;;;;;;3.90;80.50;;;;;;5094001;28;19923;-37
2022/12/12 00:26:03;;;;;;;;;;;3.90;80.40;;;;;;5093943;28;19912;-36
2022/12/12 00:28:28;;;;;;;;;;;3.90;80.50;;;;;;5093882;28;19935;-36
2022/12/12 00:30:54;;;;;;;;;;;3.90;80.50;;;;;;5093851;28;19916;-37
2022/12/12 00:33:20;;;;;;;;;;;3.90;80.40;;;;;;5094012;28;20312;-36
2022/12/12 00:35:48;;;;;;;;;;;3.90;80.50;;;;;;5094039;28;19920;-36
2022/12/12 00:38:14;;;;;;;;;;;3.80;80.50;;;;;;5094079;28;20442;-36
2022/12/12 00:40:39;;;;;;;;;;;3.80;80.50;;;;;;5093870;28;19913;-37
2022/12/12 00:43:05;;;;;;;;;;;3.80;80.40;;;;;;5093933;28;19920;-36
2022/12/12 00:45:30;;;;;;;;;;;3.80;80.40;;;;;;5093844;28;20064;-35
2022/12/12 00:47:56;;;;;;;;;;;3.80;80.40;;;;;;5093538;28;19912;-36
2022/12/12 00:50:21;;;;;;;;;;;3.80;80.30;;;;;;5093503;28;19919;-35
2022/12/12 00:52:46;;;;;;;;;;;3.90;80.40;;;;;;5093453;28;20368;-36
2022/12/12 00:55:12;;;;;;;;;;;3.80;80.30;;;;;;5093463;28;19913;-36
2022/12/12 00:57:37;;;;;;;;;;;3.80;80.30;;;;;;5093254;28;19969;-36
2022/12/12 01:00:04;;;;;;;;;;;3.80;80.30;;;;;;5093297;28;19919;-36
2022/12/12 01:02:30;;;;;;;;;;;3.80;80.30;;;;;;5093035;28;19966;-36
2022/12/12 01:04:55;;;;;;;;;;;3.80;80.30;;;;;;5093151;28;19955;-36
2022/12/12 01:07:21;;;;;;;;;;;3.80;80.30;;;;;;5093267;28;19912;-36
2022/12/12 01:09:46;;;;;;;;;;;3.80;80.30;;;;;;5092075;28;19916;-36
2022/12/12 01:12:12;;;;;;;;;;;3.90;80.30;;;;;;5093143;28;19912;-35
2022/12/12 01:14:37;;;;;;;;;;;3.80;80.20;;;;;;5092869;28;19922;-36
2022/12/12 01:17:03;;;;;;;;;;;3.90;80.30;;;;;;5093090;28;20014;-36
2022/12/12 01:19:28;;;;;;;;;;;3.90;80.30;;;;;;5093161;28;20406;-36
2022/12/12 01:21:54;;;;;;;;;;;3.80;80.20;;;;;;5092860;28;19916;-35
2022/12/12 01:24:20;;;;;;;;;;;3.80;80.20;;;;;;5092964;28;19927;-36
2022/12/12 01:26:45;;;;;;;;;;;3.80;80.20;;;;;;5093058;28;19912;-35
2022/12/12 01:29:11;;;;;;;;;;;3.80;80.30;;;;;;5093095;28;19920;-35
2022/12/12 01:31:36;;;;;;;;;;;3.80;80.30;;;;;;5092927;28;20394;-36
2022/12/12 01:34:02;;;;;;;;;;;3.80;80.30;;;;;;5093004;28;19912;-34
2022/12/12 01:36:27;;;;;;;;;;;3.80;80.30;;;;;;5092896;28;19912;-40
2022/12/12 01:38:53;;;;;;;;;;;3.80;80.30;;;;;;5091507;28;20003;-36
2022/12/12 01:41:20;;;;;;;;;;;3.80;80.30;;;;;;5092630;28;19919;-35
2022/12/12 01:43:45;;;;;;;;;;;3.80;80.30;;;;;;5092542;28;20414;-35
2022/12/12 01:46:29;;;;;;;;;;;3.80;80.30;;;;;;5092558;28;19951;-36
2022/12/12 01:48:57;;;;;;;;;;;3.80;80.30;;;;;;5092456;28;19960;-36
2022/12/12 01:51:24;;;;;;;;;;;3.80;80.30;;;;;;5092272;28;20219;-36
2022/12/12 01:53:51;;;;;;;;;;;3.80;80.20;;;;;;5092476;28;19919;-36
2022/12/12 01:56:18;;;;;;;;;;;3.80;80.30;;;;;;5092344;28;20004;-36
2022/12/12 01:58:46;;;;;;;;;;;3.70;80.20;;;;;;5092295;28;19966;-35
2022/12/12 02:01:11;;;;;;;;;;;3.70;80.20;;;;;;5092390;28;19931;-35
2022/12/12 02:03:38;;;;;;;;;;;3.70;80.20;;;;;;5091925;28;19927;-36
2022/12/12 02:06:05;;;;;;;;;;;3.70;80.20;;;;;;5092105;28;20351;-35
2022/12/12 02:08:31;;;;;;;;;;;3.70;80.30;;;;;;5092043;28;19916;-35
2022/12/12 02:10:57;;;;;;;;;;;3.60;80.30;;;;;;5092155;28;19956;-38
2022/12/12 02:13:26;;;;;;;;;;;3.60;80.40;;;;;;5091815;28;19918;-36
2022/12/12 02:16:15;;;;;;;;;;;3.60;80.30;;;;;;5091792;28;19912;-35
2022/12/12 02:18:58;;;;;;;;;;;3.60;80.40;;;;;;5072052;28;19919;-35
2022/12/12 02:21:26;;;;;;;;;;;3.60;80.50;;;;;;5091931;28;19912;-35
2022/12/12 02:23:52;;;;;;;;;;;3.60;80.50;;;;;;5092019;28;19915;-37
2022/12/12 02:26:17;;;;;;;;;;;3.60;80.50;;;;;;5091274;28;19920;-36
2022/12/12 02:29:00;;;;;;;;;;;3.60;80.50;;;;;;5091960;28;20287;-35
2022/12/12 02:31:55;;;;;;;;;;;3.60;81.10;;;;;;5091653;28;19920;-36
2022/12/12 02:34:29;;;;;;;;;;;3.60;80.30;;;;;;5054077;28;20044;-36
2022/12/12 02:37:06;;;;;;;;;;;3.60;80.30;;;;;;5091553;28;19912;-35
2022/12/12 02:39:38;;;;;;;;;;;3.60;80.30;;;;;;5091553;28;20452;-36
2022/12/12 02:42:07;;;;;;;;;;;3.60;80.30;;;;;;5091527;28;19955;-34
2022/12/12 02:44:38;;;;;;;;;;;3.60;80.30;;;;;;5091338;28;20407;-36
2022/12/12 02:47:11;;;;;;;;;;;3.60;80.20;;;;;;5091461;28;19916;-35
2022/12/12 02:49:41;;;;;;;;;;;3.60;80.20;;;;;;5090078;28;19923;-37
2022/12/12 02:52:08;;;;;;;;;;;3.60;80.30;;;;;;5091641;28;19912;-36
2022/12/12 02:54:34;;;;;;;;;;;3.60;80.30;;;;;;5091773;28;19916;-35
2022/12/12 02:57:00;;;;;;;;;;;3.60;80.30;;;;;;5091901;28;19922;-38
2022/12/12 02:59:32;;;;;;;;;;;3.60;80.30;;;;;;5091520;28;19912;-36
2022/12/12 03:02:16;;;;;;;;;;;3.60;80.20;;;;;;5091256;28;19960;-36
2022/12/12 03:07:52;;;;;;;;;;;3.70;80.20;;;;;;5089950;28;19969;-35
2022/12/12 03:10:34;;;;;;;;;;;3.60;80.20;;;;;;5091330;28;19919;-38
2022/12/12 03:13:02;;;;;;;;;;;3.60;80.10;;;;;;5091406;28;19940;-38
2022/12/12 03:15:54;;;;;;;;;;;3.60;80.10;;;;;;5091324;28;19951;-44
2022/12/12 03:18:26;;;;;;;;;;;3.60;80.10;;;;;;5091478;28;19965;-37
2022/12/12 03:20:52;;;;;;;;;;;3.60;80.20;;;;;;5091281;28;19916;-36
2022/12/12 03:23:20;;;;;;;;;;;3.60;80.10;;;;;;5091085;28;19923;-38
2022/12/12 03:25:50;;;;;;;;;;;3.60;80.10;;;;;;5091526;28;19912;-36
2022/12/12 03:28:15;;;;;;;;;;;3.60;80.10;;;;;;5091401;28;19919;-35
2022/12/12 03:30:43;;;;;;;;;;;3.50;80.10;;;;;;5089957;28;19916;-38
2022/12/12 03:33:08;;;;;;;;;;;3.50;80.10;;;;;;5091164;28;20327;-38
2022/12/12 03:35:36;;;;;;;;;;;3.50;80.20;;;;;;5090918;28;19926;-36
2022/12/12 03:38:11;;;;;;;;;;;3.40;80.20;;;;;;5090681;28;19912;-36
2022/12/12 03:40:41;;;;;;;;;;;3.40;80.30;;;;;;5094417;28;19918;-37
2022/12/12 03:43:12;;;;;;;;;;;3.30;80.30;;;;;;5094431;28;19916;-36
2022/12/12 03:46:07;;;;;;;;;;;3.30;80.40;;;;;;5094569;28;19913;-36
2022/12/12 03:48:35;;;;;;;;;;;3.20;80.50;;;;;;5084911;28;19912;-35
2022/12/12 03:51:06;;;;;;;;;;;3.10;80.60;;;;;;5094610;28;19912;-36
2022/12/12 03:53:38;;;;;;;;;;;3.10;80.70;;;;;;5093269;28;20260;-36
2022/12/12 03:56:20;;;;;;;;;;;3.00;80.70;;;;;;5094408;28;19912;-35
2022/12/12 03:58:54;;;;;;;;;;;3.00;80.80;;;;;;5094296;28;19912;-36
2022/12/12 04:01:22;;;;;;;;;;;2.90;80.80;;;;;;5094353;28;19912;-36
2022/12/12 04:03:55;;;;;;;;;;;2.90;80.90;;;;;;5094078;28;20072;-34
2022/12/12 04:06:30;;;;;;;;;;;2.90;80.90;;;;;;5094079;28;19912;-34
2022/12/12 04:15:10;;;;;;;;;;;2.70;80.90;;;;;;5094251;28;19931;-34
2022/12/12 04:17:51;;;;;;;;;;;2.70;81.00;;;;;;5094111;28;19915;-34
2022/12/12 04:23:49;;;;;;;;;;;2.60;81.10;;;;;;5094156;28;19969;-35
2022/12/12 04:29:06;;;;;;;;;;;2.50;81.30;;;;;;5094113;28;19957;-34
2022/12/12 04:31:35;;;;;;;;;;;2.50;81.40;;;;;;5093795;28;19913;-34
2022/12/12 04:34:04;;;;;;;;;;;2.40;81.40;;;;;;5093708;28;20000;-34
2022/12/12 04:36:30;;;;;;;;;;;2.40;81.50;;;;;;5093730;28;19912;-35
2022/12/12 04:38:56;;;;;;;;;;;2.40;81.50;;;;;;5093605;28;19977;-34
2022/12/12 04:41:24;;;;;;;;;;;2.30;81.50;;;;;;5093753;28;20325;-35
2022/12/12 04:43:50;;;;;;;;;;;2.30;81.50;;;;;;5093965;28;19916;-35
2022/12/12 04:46:19;;;;;;;;;;;2.30;81.60;;;;;;5093542;28;20044;-41
2022/12/12 04:48:45;;;;;;;;;;;2.30;81.60;;;;;;5093481;28;19944;-35
2022/12/12 04:51:12;;;;;;;;;;;2.30;81.70;;;;;;5093545;28;19943;-36
2022/12/12 04:53:40;;;;;;;;;;;2.30;81.80;;;;;;5093686;28;19916;-36
2022/12/12 04:56:08;;;;;;;;;;;2.20;81.80;;;;;;5093541;28;19922;-36
2022/12/12 04:58:35;;;;;;;;;;;2.20;81.80;;;;;;5092350;28;20290;-34
2022/12/12 05:01:21;;;;;;;;;;;2.20;81.80;;;;;;5093658;28;19912;-36
2022/12/12 05:03:49;;;;;;;;;;;2.20;81.80;;;;;;5085551;28;19920;-35
2022/12/12 05:06:18;;;;;;;;;;;2.10;81.70;;;;;;5093072;28;20193;-34
2022/12/12 05:08:45;;;;;;;;;;;2.10;81.70;;;;;;5093362;28;19912;-34
2022/12/12 05:11:11;;;;;;;;;;;2.10;81.70;;;;;;5093412;28;19916;-35
2022/12/12 05:13:39;;;;;;;;;;;2.10;81.80;;;;;;5093403;28;20351;-35
2022/12/12 05:16:13;;;;;;;;;;;2.10;81.90;;;;;;5093164;28;19912;-34
2022/12/12 05:18:39;;;;;;;;;;;2.10;81.90;;;;;;5091887;28;19909;-35
2022/12/12 05:21:04;;;;;;;;;;;2.00;81.90;;;;;;5093082;28;19972;-34
2022/12/12 05:23:30;;;;;;;;;;;2.00;81.90;;;;;;5093178;28;19912;-36
2022/12/12 05:25:55;;;;;;;;;;;2.00;81.90;;;;;;5092938;28;19915;-35
2022/12/12 05:28:21;;;;;;;;;;;2.00;81.90;;;;;;5092987;28;20434;-35
2022/12/12 05:30:46;;;;;;;;;;;2.00;81.90;;;;;;5093171;28;19908;-35
2022/12/12 05:33:11;;;;;;;;;;;2.10;81.90;;;;;;5092944;28;19922;-35
2022/12/12 05:35:37;;;;;;;;;;;2.10;81.90;;;;;;5092685;28;20010;-35
2022/12/12 05:38:02;;;;;;;;;;;2.10;81.80;;;;;;5092751;28;19908;-32
2022/12/12 05:40:28;;;;;;;;;;;2.10;81.80;;;;;;5092673;28;20398;-37
2022/12/12 05:42:53;;;;;;;;;;;2.00;81.80;;;;;;5092652;28;19969;-35
2022/12/12 05:45:19;;;;;;;;;;;2.00;81.90;;;;;;5092593;28;20371;-35
2022/12/12 05:47:44;;;;;;;;;;;1.90;81.90;;;;;;5092691;28;19908;-35
2022/12/12 05:50:10;;;;;;;;;;;1.90;81.90;;;;;;5092511;28;19995;-35
2022/12/12 05:52:35;;;;;;;;;;;1.90;82.00;;;;;;5092661;28;19908;-39
2022/12/12 05:55:01;;;;;;;;;;;1.90;82.10;;;;;;5092584;28;19912;-36
2022/12/12 05:57:26;;;;;;;;;;;1.80;82.10;;;;;;5092364;28;19915;-35
2022/12/12 05:59:52;;;;;;;;;;;1.80;82.20;;;;;;5092458;28;19915;-35
2022/12/12 06:02:17;;;;;;;;;;;1.80;82.20;;;;;;5091603;28;20279;-35
2022/12/12 06:04:43;;;;;;;;;;;1.80;82.20;;;;;;5092360;28;19908;-35
2022/12/12 06:07:08;;;;;;;;;;;1.80;82.30;;;;;;5092673;28;19908;-35
2022/12/12 06:09:35;;;;;;;;;;;1.70;82.20;;;;;;5092238;28;20315;-35
2022/12/12 06:12:00;;;;;;;;;;;1.70;82.30;;;;;;5092262;28;19908;-36
2022/12/12 06:14:26;;;;;;;;;;;1.70;82.30;;;;;;5092232;28;19917;-35
2022/12/12 06:16:51;;;;;;;;;;;1.70;82.30;;;;;;5092270;28;20298;-36
2022/12/12 06:19:20;;;;;;;;;;;1.60;82.30;;;;;;5091993;28;19908;-36
2022/12/12 06:21:46;;;;;;;;;;;1.60;82.30;;;;;;5092082;28;19915;-35
2022/12/12 06:24:11;;;;;;;;;;;1.60;82.30;;;;;;5092262;28;19912;-36
2022/12/12 06:26:37;;;;;;;;;;;1.50;82.30;;;;;;5092255;28;19908;-35
2022/12/12 06:29:02;;;;;;;;;;;1.50;82.40;;;;;;5092374;28;19914;-35
2022/12/12 06:31:28;;;;;;;;;;;1.50;82.40;;;;;;5092173;28;19947;-35
2022/12/12 06:33:53;;;;;;;;;;;1.50;82.40;;;;;;5092503;28;20264;-35
2022/12/12 06:36:23;;;;;;;;;;;1.50;82.50;;;;;;5092180;28;19991;-37
2022/12/12 06:38:50;;;;;;;;;;;1.40;82.50;;;;;;5091194;28;20275;-35
2022/12/12 06:41:15;;;;;;;;;;;1.40;82.60;;;;;;5092110;28;19916;-34
2022/12/12 06:43:41;;;;;;;;;;;1.40;82.60;;;;;;5092300;28;19912;-37
2022/12/12 06:46:09;;;;;;;;;;;1.40;82.60;;;;;;5091952;28;19959;-36
2022/12/12 06:48:34;;;;;;;;;;;1.40;82.70;;;;;;5091988;28;20360;-36
2022/12/12 06:51:04;;;;;;;;;;;1.40;82.70;;;;;;5091992;28;19915;-35
2022/12/12 06:53:29;;;;;;;;;;;1.30;82.60;;;;;;5091925;28;20048;-36
2022/12/12 06:55:55;;;;;;;;;;;1.30;82.70;;;;;;5091901;28;20410;-35
2022/12/12 06:58:20;;;;;;;;;;;1.30;82.90;;;;;;5091945;28;19908;-35
2022/12/12 07:00:51;;;;;;;;;;;1.20;82.90;;;;;;5091915;28;19991;-34
2022/12/12 07:03:16;;;;;;;;;;;1.20;83.00;;;;;;5091661;28;20419;-35
2022/12/12 07:05:42;;;;;;;;;;;1.20;83.00;;;;;;5091806;28;19915;-35
2022/12/12 07:08:08;;;;;;;;;;;1.20;83.00;;;;;;5091843;28;19908;-35
2022/12/12 07:10:34;;;;;;;;;;;1.10;83.00;;;;;;5091824;28;20023;-34
2022/12/12 07:12:59;;;;;;;;;;;1.10;83.10;;;;;;5094491;28;19954;-37
2022/12/12 07:15:25;;;;;;;;;;;1.10;83.10;;;;;;5095590;28;20198;-37
2022/12/12 07:17:52;;;;;;;;;;;1.10;83.10;;;;;;5095854;28;19956;-35
2022/12/12 07:20:18;;;;;;;;;;;1.10;83.10;;;;;;5095879;28;20231;-35
2022/12/12 07:22:43;;;;;;;;;;;1.10;83.10;;;;;;5095441;28;20032;-35
2022/12/12 07:25:08;;;;;;;;;;;1.10;83.10;;;;;;5095575;28;19915;-35
2022/12/12 07:27:34;;;;;;;;;;;1.10;83.10;;;;;;5095274;28;19912;-35
2022/12/12 07:29:59;;;;;;;;;;;1.10;83.10;;;;;;5095389;28;20307;-36
2022/12/12 07:32:25;;;;;;;;;;;1.10;83.10;;;;;;5095176;28;19931;-36
2022/12/12 07:34:50;;;;;;;;;;;1.10;83.10;;;;;;5095667;28;19986;-41
2022/12/12 07:37:16;;;;;;;;;;;1.10;83.10;;;;;;5095229;28;19915;-35
2022/12/12 07:39:41;;;;;;;;;;;1.10;83.20;;;;;;5095348;28;19912;-36
2022/12/12 07:42:07;;;;;;;;;;;1.10;83.20;;;;;;5094983;28;19908;-34
2022/12/12 07:44:32;;;;;;;;;;;1.10;83.20;;;;;;5095450;28;19961;-37
2022/12/12 07:46:58;;;;;;;;;;;1.10;83.20;;;;;;5095233;28;20335;-34
2022/12/12 07:49:23;;;;;;;;;;;1.10;83.20;;;;;;5094887;28;19913;-34
2022/12/12 07:51:49;;;;;;;;;;;1.10;83.20;;;;;;5094795;28;20330;-34
2022/12/12 07:54:14;;;;;;;;;;;1.10;83.20;;;;;;5094946;28;19915;-35
2022/12/12 07:56:40;;;;;;;;;;;1.10;83.10;;;;;;5094772;28;19908;-35
2022/12/12 07:59:05;;;;;;;;;;;1.10;83.10;;;;;;5094657;28;20312;-35
2022/12/12 08:01:31;;;;;;;;;;;1.10;83.10;;;;;;5094507;28;19999;-35
2022/12/12 08:03:56;;;;;;;;;;;1.10;83.10;;;;;;5094350;28;19916;-35
2022/12/12 08:06:22;;;;;;;;;;;1.10;83.10;;;;;;5094528;28;19919;-35
2022/12/12 08:08:48;;;;;;;;;;;1.20;83.10;;;;;;5093193;28;19908;-35
2022/12/12 08:11:15;;;;;;;;;;;1.20;83.10;;;;;;5094455;28;19989;-35
2022/12/12 08:13:41;;;;;;;;;;;1.20;83.10;;;;;;5094401;28;19917;-35
2022/12/12 08:16:10;;;;;;;;;;;1.20;83.10;;;;;;5094470;28;20376;-33
2022/12/12 08:18:36;;;;;;;;;;;1.20;83.10;;;;;;5094336;28;20551;-34
2022/12/12 08:21:05;;;;;;;;;;;1.20;83.10;;;;;;5094274;28;19915;-35
2022/12/12 08:23:30;;;;;;;;;;;1.20;83.10;;;;;;5093329;28;19912;-35
2022/12/12 08:25:56;;;;;;;;;;;1.20;83.10;;;;;;5094341;28;19908;-37
2022/12/12 08:28:21;;;;;;;;;;;1.30;83.20;;;;;;5094208;28;19915;-34
2022/12/12 08:30:48;;;;;;;;;;;1.30;83.20;;;;;;5094160;28;19933;-35
2022/12/12 08:33:13;;;;;;;;;;;1.40;83.10;;;;;;5094179;28;19908;-35
2022/12/12 08:35:39;;;;;;;;;;;1.40;82.90;;;;;;5093956;28;19915;-35
2022/12/12 08:38:04;;;;;;;;;;;1.40;82.80;;;;;;5093911;28;19908;-35
2022/12/12 08:40:30;;;;;;;;;;;1.40;82.80;;;;;;5093650;28;20020;-36
2022/12/12 08:42:55;;;;;;;;;;;1.40;82.90;;;;;;5093832;28;20246;-35
2022/12/12 08:45:21;;;;;;;;;;;1.40;82.90;;;;;;5093726;28;19912;-35
2022/12/12 08:47:46;;;;;;;;;;;1.40;82.90;;;;;;5092314;28;20322;-35
2022/12/12 08:50:12;;;;;;;;;;;1.40;82.90;;;;;;5093654;28;20378;-36
2022/12/12 08:52:37;;;;;;;;;;;1.50;82.90;;;;;;5093420;28;19912;-36
2022/12/12 08:55:03;;;;;;;;;;;1.50;82.90;;;;;;5093968;28;19947;-38
2022/12/12 08:57:28;;;;;;;;;;;1.50;82.90;;;;;;5093560;28;19961;-36
2022/12/12 08:59:54;;;;;;;;;;;1.50;82.80;;;;;;5093952;28;19969;-36
2022/12/12 09:02:19;;;;;;;;;;;1.50;82.80;;;;;;5093306;28;19927;-36
2022/12/12 09:04:44;;;;;;;;;;;1.50;82.70;;;;;;5093488;28;19951;-35
2022/12/12 09:07:10;;;;;;;;;;;1.60;82.70;;;;;;5093475;28;20348;-37
2022/12/12 09:09:35;;;;;;;;;;;1.50;82.70;;;;;;5093456;28;19908;-35
2022/12/12 09:12:01;;;;;;;;;;;1.60;82.70;;;;;;5093392;28;19908;-35
2022/12/12 09:14:27;;;;;;;;;;;1.60;82.70;;;;;;5093281;28;20260;-35
2022/12/12 09:16:52;;;;;;;;;;;1.60;82.60;;;;;;5093340;28;19908;-36
2022/12/12 09:19:18;;;;;;;;;;;1.60;82.60;;;;;;5093475;28;20005;-36
2022/12/12 09:21:43;;;;;;;;;;;1.70;82.50;;;;;;5093385;28;20296;-37
2022/12/12 09:24:08;;;;;;;;;;;1.70;82.40;;;;;;5093130;28;19912;-35
2022/12/12 09:26:34;;;;;;;;;;;1.70;82.40;;;;;;5093230;28;19912;-36
2022/12/12 09:28:59;;;;;;;;;;;1.70;82.40;;;;;;5093082;28;20437;-34
2022/12/12 09:31:25;;;;;;;;;;;1.70;82.40;;;;;;5093106;28;19908;-38
2022/12/12 09:33:50;;;;;;;;;;;1.70;82.30;;;;;;5093230;28;20413;-46
2022/12/12 09:36:16;;;;;;;;;;;1.80;82.30;;;;;;5093088;28;19909;-37
2022/12/12 09:38:42;;;;;;;;;;;1.80;82.20;;;;;;5092942;28;20272;-37
2022/12/12 09:41:18;;;;;;;;;;;1.80;82.10;;;;;;5092987;28;19908;-34
2022/12/12 09:44:05;;;;;;;;;;;1.90;82.10;;;;;;5092848;28;20313;-36
2022/12/12 09:46:41;;;;;;;;;;;1.80;82.00;;;;;;5092824;28;19912;-37
2022/12/12 09:49:12;;;;;;;;;;;1.80;81.90;;;;;;5092834;28;20006;-36
2022/12/12 09:51:38;;;;;;;;;;;1.80;81.80;;;;;;5092789;28;19912;-39
2022/12/12 09:54:04;;;;;;;;;;;1.80;81.80;;;;;;5092838;28;20314;-39
2022/12/12 09:56:36;;;;;;;;;;;1.80;81.70;;;;;;5092637;28;20003;-34
2022/12/12 09:59:14;;;;;;;;;;;1.80;81.70;;;;;;5092610;28;19908;-37
2022/12/12 10:01:58;;;;;;;;;;;1.80;81.70;;;;;;5092359;28;19912;-37
2022/12/12 10:04:24;;;;;;;;;;;1.80;81.70;;;;;;5092449;28;19924;-38
2022/12/12 10:06:58;;;;;;;;;;;1.80;81.60;;;;;;5091707;28;20503;-36
2022/12/12 10:09:23;;;;;;;;;;;1.90;81.60;;;;;;5092397;28;19908;-37
2022/12/12 10:11:49;;;;;;;;;;;1.80;81.50;;;;;;5092418;28;20433;-35
2022/12/12 10:14:19;;;;;;;;;;;1.90;81.50;;;;;;5092526;28;19909;-35
2022/12/12 10:16:45;;;;;;;;;;;1.90;81.40;;;;;;5092425;28;19908;-36
2022/12/12 10:19:19;;;;;;;;;;;2.00;81.30;;;;;;5092395;28;20378;-37
2022/12/12 10:21:46;;;;;;;;;;;2.00;81.20;;;;;;5092268;28;19915;-35
2022/12/12 10:24:26;;;;;;;;;;;2.00;81.20;;;;;;5092193;28;19916;-37
2022/12/12 10:26:53;;;;;;;;;;;2.00;81.20;;;;;;5092216;28;20321;-37
2022/12/12 10:29:19;;;;;;;;;;;2.10;81.00;;;;;;5092254;28;19924;-35
2022/12/12 10:32:05;;;;;;;;;;;2.00;80.90;;;;;;5092160;28;19908;-35
2022/12/12 10:34:37;;;;;;;;;;;2.00;80.80;;;;;;5092219;28;19908;-37
2022/12/12 10:37:02;;;;;;;;;;;2.00;80.80;;;;;;5092172;28;19957;-36
2022/12/12 10:39:31;;;;;;;;;;;2.00;80.80;;;;;;5092069;28;19908;-35
2022/12/12 10:42:01;;;;;;;;;;;2.00;80.90;;;;;;5092113;28;19908;-35
2022/12/12 10:44:46;;;;;;;;;;;2.10;80.90;;;;;;5092097;28;19912;-35
2022/12/12 10:47:11;;;;;;;;;;;2.10;80.80;;;;;;5093579;28;19908;-37
2022/12/12 10:49:37;;;;;;;;;;;2.20;80.70;;;;;;5095085;28;20446;-34
2022/12/12 10:52:04;;;;;;;;;;;2.20;80.70;;;;;;5096235;28;20359;-37
2022/12/12 10:54:32;;;;;;;;;;;2.20;80.60;;;;;;5096072;28;19908;-35
2022/12/12 10:57:16;;;;;;;;;;;2.30;80.60;;;;;;5096276;28;19916;-37
2022/12/12 10:59:44;;;;;;;;;;;2.40;80.50;;;;;;5096066;28;19908;-36
2022/12/12 11:02:33;;;;;;;;;;;2.40;80.40;;;;;;5095842;28;19927;-36
2022/12/12 11:05:06;;;;;;;;;;;2.50;80.30;;;;;;5095927;28;19916;-36
2022/12/12 11:07:39;;;;;;;;;;;2.50;80.10;;;;;;5095948;28;19912;-36
2022/12/12 11:10:17;;;;;;;;;;;2.50;80.10;;;;;;5095788;28;19916;-37
2022/12/12 11:12:42;;;;;;;;;;;2.60;80.10;;;;;;5095700;28;20019;-35
2022/12/12 11:15:16;;;;;;;;;;;2.60;80.00;;;;;;5095690;28;19948;-36
2022/12/12 11:17:43;;;;;;;;;;;2.70;80.00;;;;;;5095672;28;19920;-36
2022/12/12 11:20:16;;;;;;;;;;;2.70;79.80;;;;;;5095665;28;19912;-37
2022/12/12 11:22:42;;;;;;;;;;;2.70;79.70;;;;;;5095441;28;20018;-40
2022/12/12 11:25:21;;;;;;;;;;;2.80;79.70;;;;;;5095651;28;20352;-35
2022/12/12 11:27:46;;;;;;;;;;;2.80;79.60;;;;;;5095425;28;19918;-35
2022/12/12 11:30:30;;;;;;;;;;;2.80;79.70;;;;;;5095490;28;20015;-38
2022/12/12 11:32:56;;;;;;;;;;;2.90;79.70;;;;;;5095365;28;19998;-35
2022/12/12 11:35:22;;;;;;;;;;;2.90;79.60;;;;;;5095488;28;19955;-36
2022/12/12 11:37:49;;;;;;;;;;;3.00;79.50;;;;;;5095302;28;20367;-36
2022/12/12 11:40:23;;;;;;;;;;;3.00;79.40;;;;;;5095197;28;19966;-37
2022/12/12 11:42:49;;;;;;;;;;;3.00;79.40;;;;;;5093912;28;19939;-36
2022/12/12 11:45:19;;;;;;;;;;;3.00;79.30;;;;;;5093863;28;19913;-36
2022/12/12 11:47:46;;;;;;;;;;;3.10;79.40;;;;;;5095074;28;19912;-37
2022/12/12 11:50:14;;;;;;;;;;;3.10;79.20;;;;;;5094940;28;19912;-34
2022/12/12 11:52:40;;;;;;;;;;;3.10;79.20;;;;;;5094829;28;19919;-34
2022/12/12 11:55:11;;;;;;;;;;;3.10;79.00;;;;;;5095059;28;19912;-37
2022/12/12 11:57:52;;;;;;;;;;;3.20;79.00;;;;;;5094633;28;19923;-34
2022/12/12 12:00:19;;;;;;;;;;;3.10;78.80;;;;;;5094206;28;20383;-35
2022/12/12 12:02:56;;;;;;;;;;;3.20;78.80;;;;;;5094773;28;19968;-37
2022/12/12 12:05:30;;;;;;;;;;;3.20;78.70;;;;;;5094578;28;20353;-36
2022/12/12 12:08:08;;;;;;;;;;;3.20;78.60;;;;;;5094587;28;20379;-34
2022/12/12 12:10:49;;;;;;;;;;;3.20;78.60;;;;;;5094666;28;19912;-35
2022/12/12 12:13:17;;;;;;;;;;;3.20;78.50;;;;;;5094485;28;19916;-35
2022/12/12 12:15:52;;;;;;;;;;;3.20;78.50;;;;;;5094595;28;20363;-36
2022/12/12 12:18:25;;;;;;;;;;;3.30;78.50;;;;;;5094362;28;19912;-33
2022/12/12 12:21:03;;;;;;;;;;;3.20;78.40;;;;;;5094277;28;19919;-37
2022/12/12 12:23:41;;;;;;;;;;;3.20;78.40;;;;;;5094303;28;20395;-36
2022/12/12 12:26:07;;;;;;;;;;;3.30;79.00;;;;;;5094201;28;19912;-36
2022/12/12 12:28:38;;;;;;;;;;;3.30;78.30;;;;;;5094122;28;20375;-35
2022/12/12 12:31:15;;;;;;;;;;;3.30;78.20;;;;;;5094187;28;19919;-36
2022/12/12 12:33:55;;;;;;;;;;;3.30;78.30;;;;;;5093956;28;19955;-35
2022/12/12 12:36:33;;;;;;;;;;;3.30;78.40;;;;;;5093797;28;19912;-36
2022/12/12 12:39:02;;;;;;;;;;;3.40;78.30;;;;;;5093948;28;19919;-36
2022/12/12 12:41:54;;;;;;;;;;;3.40;78.30;;;;;;5093872;28;19934;-35
2022/12/12 12:44:23;;;;;;;;;;;3.40;78.20;;;;;;5077584;28;19973;-42
2022/12/12 12:46:55;;;;;;;;;;;3.50;78.10;;;;;;5093690;28;20268;-35
2022/12/12 12:49:23;;;;;;;;;;;3.50;78.00;;;;;;5093391;28;19959;-34
2022/12/12 12:52:01;;;;;;;;;;;3.60;78.00;;;;;;5093973;28;20248;-35
2022/12/12 12:54:31;;;;;;;;;;;3.60;77.90;;;;;;5093461;28;20074;-35
2022/12/12 12:57:04;;;;;;;;;;;3.60;77.90;;;;;;5093499;28;19914;-35
2022/12/12 12:59:37;;;;;;;;;;;3.60;77.70;;;;;;5093435;28;20444;-33
2022/12/12 13:02:11;;;;;;;;;;;3.70;77.70;;;;;;5093231;28;20383;-36
2022/12/12 13:04:44;;;;;;;;;;;3.60;77.60;;;;;;5093305;28;19916;-34
2022/12/12 13:07:19;;;;;;;;;;;3.70;77.60;;;;;;5093666;28;20453;-35
2022/12/12 13:09:48;;;;;;;;;;;3.70;77.60;;;;;;5093022;28;20006;-36
2022/12/12 13:12:16;;;;;;;;;;;3.70;77.40;;;;;;5093482;28;19912;-36
2022/12/12 13:14:48;;;;;;;;;;;3.80;77.40;;;;;;5093107;28;19945;-35
2022/12/12 13:17:19;;;;;;;;;;;3.70;77.30;;;;;;5093048;28;19912;-35
2022/12/12 13:19:45;;;;;;;;;;;3.80;77.40;;;;;;5093137;28;20268;-36
2022/12/12 13:22:17;;;;;;;;;;;3.80;77.30;;;;;;5091739;28;20302;-36
2022/12/12 13:24:49;;;;;;;;;;;3.80;77.30;;;;;;5092959;28;19915;-38
2022/12/12 13:27:19;;;;;;;;;;;3.90;77.30;;;;;;5092895;28;19916;-36
2022/12/12 13:29:58;;;;;;;;;;;3.90;77.30;;;;;;5093068;28;19944;-37
2022/12/12 13:32:32;;;;;;;;;;;4.00;77.20;;;;;;5093011;28;19999;-37
2022/12/12 13:35:19;;;;;;;;;;;3.90;77.00;;;;;;5093115;28;19912;-35
2022/12/12 13:37:47;;;;;;;;;;;3.90;77.10;;;;;;5085539;28;19926;-35
2022/12/12 13:40:23;;;;;;;;;;;3.90;77.10;;;;;;5093046;28;19912;-37
2022/12/12 13:42:50;;;;;;;;;;;3.90;77.10;;;;;;5092943;28;19916;-35
2022/12/12 13:45:34;;;;;;;;;;;3.90;77.10;;;;;;5093177;28;19962;-37
2022/12/12 13:48:01;;;;;;;;;;;3.90;77.10;;;;;;5092886;28;19999;-36
2022/12/12 13:50:26;;;;;;;;;;;3.90;77.80;;;;;;5092639;28;20395;-41
2022/12/12 13:53:04;;;;;;;;;;;3.90;77.20;;;;;;5092569;28;19912;-37
2022/12/12 13:55:30;;;;;;;;;;;3.90;77.10;;;;;;5092516;28;19912;-34
2022/12/12 13:57:58;;;;;;;;;;;3.90;77.10;;;;;;5092576;28;19922;-35
2022/12/12 14:00:25;;;;;;;;;;;3.90;77.20;;;;;;5092428;28;20007;-36
2022/12/12 14:02:53;;;;;;;;;;;3.90;77.20;;;;;;5092167;28;19977;-36
2022/12/12 14:05:29;;;;;;;;;;;3.90;77.20;;;;;;5092309;28;19912;-36
2022/12/12 14:07:57;;;;;;;;;;;3.80;77.10;;;;;;5092219;28;19916;-35
2022/12/12 14:10:23;;;;;;;;;;;3.80;77.20;;;;;;5092150;28;19912;-35
2022/12/12 14:12:48;;;;;;;;;;;3.80;77.30;;;;;;5092316;28;19919;-34
2022/12/12 14:15:19;;;;;;;;;;;3.80;77.20;;;;;;5090782;28;19923;-37
2022/12/12 14:17:53;;;;;;;;;;;3.80;77.20;;;;;;5092200;28;19913;-36
2022/12/12 14:20:27;;;;;;;;;;;3.80;77.10;;;;;;5092344;28;19912;-36
2022/12/12 14:22:58;;;;;;;;;;;3.70;77.10;;;;;;5091494;28;19973;-34
2022/12/12 14:25:44;;;;;;;;;;;3.70;77.10;;;;;;5092260;28;20314;-37
2022/12/12 14:28:20;;;;;;;;;;;3.70;77.20;;;;;;5091799;28;19912;-35
2022/12/12 14:30:47;;;;;;;;;;;3.60;77.30;;;;;;5092281;28;20085;-36
2022/12/12 14:33:15;;;;;;;;;;;3.50;77.40;;;;;;5091882;28;19912;-34
2022/12/12 14:35:59;;;;;;;;;;;3.50;77.40;;;;;;5092226;28;19912;-35
2022/12/12 14:38:31;;;;;;;;;;;3.40;77.40;;;;;;5092009;28;19939;-36
2022/12/12 14:40:59;;;;;;;;;;;3.30;77.50;;;;;;5092199;28;19919;-38
2022/12/12 14:43:27;;;;;;;;;;;3.30;77.70;;;;;;5091992;28;19945;-36
2022/12/12 14:45:56;;;;;;;;;;;3.20;77.70;;;;;;5092060;28;20549;-35
2022/12/12 14:48:31;;;;;;;;;;;3.10;77.80;;;;;;5092110;28;19913;-34
2022/12/12 14:51:06;;;;;;;;;;;3.10;78.00;;;;;;5092041;28;19962;-36
2022/12/12 14:53:31;;;;;;;;;;;3.10;78.00;;;;;;5091807;28;20007;-35
2022/12/12 14:56:02;;;;;;;;;;;3.00;78.00;;;;;;5092206;28;20402;-35
2022/12/12 14:58:29;;;;;;;;;;;3.00;78.10;;;;;;5091847;28;20381;-36